sensor_id;sensor_type;location;lat;lon;timestamp;temperature;humidity
25250;DHT22;13201;51.148;13.738;2022-11-27T00:02:23;6.80;99.90
25250;DHT22;13201;51.148;13.738;2022-11-27T00:04:48;6.70;99.90
25250;DHT22;13201;51.148;13.738;2022-11-27T00:07:14;6.70;99.90
25250;DHT22;13201;51.148;13.738;2022-11-27T00:09:39;6.70;99.90
25250;DHT22;13201;51.148;13.738;2022-11-27T00:12:05;6.70;99.90
25250;DHT22;13201;51.148;13.738;2022-11-27T00:14:30;6.80;99.90
25250;DHT22;13201;51.148;13.738;2022-11-27T00:16:56;6.90;99.90
25250;DHT22;13201;51.148;13.738;2022-11-27T00:19:24;6.90;99.90
25250;DHT22;13201;51.148;13.738;2022-11-27T00:21:49;7.00;99.90
25250;DHT22;13201;51.148;13.738;2022-11-27T00:24:15;6.90;99.90
25250;DHT22;13201;51.148;13.738;2022-11-27T00:26:40;6.80;99.90
25250;DHT22;13201;51.148;13.738;2022-11-27T00:29:06;6.80;99.90
25250;DHT22;13201;51.148;13.738;2022-11-27T00:31:32;6.90;99.90
25250;DHT22;13201;51.148;13.738;2022-11-27T00:33:59;7.00;99.90
25250;DHT22;13201;51.148;13.738;2022-11-27T00:36:25;7.00;99.90
25250;DHT22;13201;51.148;13.738;2022-11-27T00:38:51;6.90;99.90
25250;DHT22;13201;51.148;13.738;2022-11-27T00:41:17;6.90;99.90
25250;DHT22;13201;51.148;13.738;2022-11-27T00:43:43;6.90;99.90
25250;DHT22;13201;51.148;13.738;2022-11-27T00:46:10;6.90;99.90
25250;DHT22;13201;51.148;13.738;2022-11-27T00:48:35;7.00;99.90
25250;DHT22;13201;51.148;13.738;2022-11-27T00:51:05;7.00;99.90
25250;DHT22;13201;51.148;13.738;2022-11-27T00:53:31;6.90;99.90
25250;DHT22;13201;51.148;13.738;2022-11-27T00:55:57;7.00;99.90
25250;DHT22;13201;51.148;13.738;2022-11-27T00:58:23;7.00;99.90
25250;DHT22;13201;51.148;13.738;2022-11-27T01:00:59;7.00;99.90
25250;DHT22;13201;51.148;13.738;2022-11-27T01:03:24;7.00;99.90
25250;DHT22;13201;51.148;13.738;2022-11-27T01:31:19;6.00;99.90
25250;DHT22;13201;51.148;13.738;2022-11-27T01:33:45;5.90;99.90
25250;DHT22;13201;51.148;13.738;2022-11-27T01:36:13;5.90;99.90
25250;DHT22;13201;51.148;13.738;2022-11-27T01:38:39;6.00;99.90
25250;DHT22;13201;51.148;13.738;2022-11-27T01:43:46;6.30;99.90
25250;DHT22;13201;51.148;13.738;2022-11-27T01:48:46;6.30;99.90
25250;DHT22;13201;51.148;13.738;2022-11-27T01:51:12;6.40;99.90
25250;DHT22;13201;51.148;13.738;2022-11-27T01:53:38;6.40;99.90
25250;DHT22;13201;51.148;13.738;2022-11-27T01:56:04;6.40;99.90
25250;DHT22;13201;51.148;13.738;2022-11-27T01:58:31;6.50;99.90
25250;DHT22;13201;51.148;13.738;2022-11-27T02:00:57;6.30;99.90
25250;DHT22;13201;51.148;13.738;2022-11-27T02:03:24;6.40;99.90
25250;DHT22;13201;51.148;13.738;2022-11-27T02:05:50;6.30;99.90
25250;DHT22;13201;51.148;13.738;2022-11-27T02:08:16;6.20;99.90
25250;DHT22;13201;51.148;13.738;2022-11-27T02:11:20;6.10;99.90
25250;DHT22;13201;51.148;13.738;2022-11-27T02:19:39;6.30;99.90
25250;DHT22;13201;51.148;13.738;2022-11-27T02:31:09;5.90;99.90
25250;DHT22;13201;51.148;13.738;2022-11-27T02:33:41;5.90;99.90
25250;DHT22;13201;51.148;13.738;2022-11-27T02:36:14;5.90;99.90
25250;DHT22;13201;51.148;13.738;2022-11-27T02:38:54;5.90;99.90
25250;DHT22;13201;51.148;13.738;2022-11-27T02:41:27;5.90;99.90
25250;DHT22;13201;51.148;13.738;2022-11-27T02:43:54;6.00;99.90
25250;DHT22;13201;51.148;13.738;2022-11-27T02:46:21;5.70;99.90
25250;DHT22;13201;51.148;13.738;2022-11-27T02:49:00;5.60;99.90
25250;DHT22;13201;51.148;13.738;2022-11-27T02:51:34;5.50;99.90
25250;DHT22;13201;51.148;13.738;2022-11-27T02:54:05;5.40;99.90
25250;DHT22;13201;51.148;13.738;2022-11-27T02:56:33;5.30;99.90
25250;DHT22;13201;51.148;13.738;2022-11-27T02:59:02;5.40;99.90
25250;DHT22;13201;51.148;13.738;2022-11-27T03:01:32;5.40;99.90
25250;DHT22;13201;51.148;13.738;2022-11-27T03:04:01;5.60;99.90
25250;DHT22;13201;51.148;13.738;2022-11-27T03:06:39;5.60;99.90
25250;DHT22;13201;51.148;13.738;2022-11-27T03:09:09;5.60;99.90
25250;DHT22;13201;51.148;13.738;2022-11-27T03:11:36;5.10;99.90
25250;DHT22;13201;51.148;13.738;2022-11-27T03:14:05;5.20;99.90
25250;DHT22;13201;51.148;13.738;2022-11-27T03:19:44;5.00;99.90
25250;DHT22;13201;51.148;13.738;2022-11-27T03:22:13;5.00;99.90
25250;DHT22;13201;51.148;13.738;2022-11-27T03:24:39;5.20;99.90
25250;DHT22;13201;51.148;13.738;2022-11-27T03:27:05;5.00;99.90
25250;DHT22;13201;51.148;13.738;2022-11-27T03:29:53;5.10;99.90
25250;DHT22;13201;51.148;13.738;2022-11-27T03:32:21;5.10;99.90
25250;DHT22;13201;51.148;13.738;2022-11-27T03:34:46;4.90;99.90
25250;DHT22;13201;51.148;13.738;2022-11-27T03:37:13;5.10;99.90
25250;DHT22;13201;51.148;13.738;2022-11-27T03:39:39;5.00;99.90
25250;DHT22;13201;51.148;13.738;2022-11-27T03:44:41;4.80;99.90
25250;DHT22;13201;51.148;13.738;2022-11-27T03:50:03;4.70;99.90
25250;DHT22;13201;51.148;13.738;2022-11-27T03:55:09;4.80;99.90
25250;DHT22;13201;51.148;13.738;2022-11-27T03:57:54;4.80;99.90
25250;DHT22;13201;51.148;13.738;2022-11-27T04:00:21;4.80;99.90
25250;DHT22;13201;51.148;13.738;2022-11-27T04:02:50;4.60;99.90
25250;DHT22;13201;51.148;13.738;2022-11-27T04:05:17;4.60;99.90
25250;DHT22;13201;51.148;13.738;2022-11-27T04:07:44;4.60;99.90
25250;DHT22;13201;51.148;13.738;2022-11-27T04:10:11;4.50;99.90
25250;DHT22;13201;51.148;13.738;2022-11-27T04:12:36;4.30;99.90
25250;DHT22;13201;51.148;13.738;2022-11-27T04:15:03;4.20;99.90
25250;DHT22;13201;51.148;13.738;2022-11-27T04:17:29;4.10;99.90
25250;DHT22;13201;51.148;13.738;2022-11-27T04:19:55;4.20;99.90
25250;DHT22;13201;51.148;13.738;2022-11-27T04:22:20;4.10;99.90
25250;DHT22;13201;51.148;13.738;2022-11-27T04:24:46;4.00;99.90
25250;DHT22;13201;51.148;13.738;2022-11-27T04:27:11;3.90;99.90
25250;DHT22;13201;51.148;13.738;2022-11-27T04:29:37;4.00;99.90
25250;DHT22;13201;51.148;13.738;2022-11-27T04:32:03;3.90;99.90
25250;DHT22;13201;51.148;13.738;2022-11-27T04:34:29;3.90;99.90
25250;DHT22;13201;51.148;13.738;2022-11-27T04:36:55;3.70;99.90
25250;DHT22;13201;51.148;13.738;2022-11-27T04:39:21;3.80;99.90
25250;DHT22;13201;51.148;13.738;2022-11-27T04:41:46;3.80;99.90
25250;DHT22;13201;51.148;13.738;2022-11-27T04:44:13;3.30;99.90
25250;DHT22;13201;51.148;13.738;2022-11-27T04:46:39;3.10;99.90
25250;DHT22;13201;51.148;13.738;2022-11-27T04:49:04;3.00;99.90
25250;DHT22;13201;51.148;13.738;2022-11-27T04:51:30;2.80;99.90
25250;DHT22;13201;51.148;13.738;2022-11-27T04:53:56;2.70;99.90
25250;DHT22;13201;51.148;13.738;2022-11-27T04:56:22;2.80;99.90
25250;DHT22;13201;51.148;13.738;2022-11-27T04:58:47;2.70;99.90
25250;DHT22;13201;51.148;13.738;2022-11-27T05:01:13;2.70;99.90
25250;DHT22;13201;51.148;13.738;2022-11-27T05:03:38;2.90;99.90
25250;DHT22;13201;51.148;13.738;2022-11-27T05:06:04;3.10;99.90
25250;DHT22;13201;51.148;13.738;2022-11-27T05:08:31;3.10;99.90
25250;DHT22;13201;51.148;13.738;2022-11-27T05:11:02;3.30;99.90
25250;DHT22;13201;51.148;13.738;2022-11-27T05:13:29;3.20;99.90
25250;DHT22;13201;51.148;13.738;2022-11-27T05:15:54;3.30;99.90
25250;DHT22;13201;51.148;13.738;2022-11-27T05:18:20;3.20;99.90
25250;DHT22;13201;51.148;13.738;2022-11-27T05:20:46;3.20;99.90
25250;DHT22;13201;51.148;13.738;2022-11-27T05:23:11;3.30;99.90
25250;DHT22;13201;51.148;13.738;2022-11-27T05:25:38;3.40;99.90
25250;DHT22;13201;51.148;13.738;2022-11-27T05:28:04;3.40;99.90
25250;DHT22;13201;51.148;13.738;2022-11-27T05:30:29;3.40;99.90
25250;DHT22;13201;51.148;13.738;2022-11-27T05:32:55;3.30;99.90
25250;DHT22;13201;51.148;13.738;2022-11-27T05:35:21;3.20;99.90
25250;DHT22;13201;51.148;13.738;2022-11-27T05:37:46;3.20;99.90
25250;DHT22;13201;51.148;13.738;2022-11-27T05:40:12;3.20;99.90
25250;DHT22;13201;51.148;13.738;2022-11-27T05:42:38;3.20;99.90
25250;DHT22;13201;51.148;13.738;2022-11-27T05:45:04;3.30;99.90
25250;DHT22;13201;51.148;13.738;2022-11-27T05:47:29;3.30;99.90
25250;DHT22;13201;51.148;13.738;2022-11-27T05:49:55;3.20;99.90
25250;DHT22;13201;51.148;13.738;2022-11-27T05:52:21;3.20;99.90
25250;DHT22;13201;51.148;13.738;2022-11-27T05:54:46;3.20;99.90
25250;DHT22;13201;51.148;13.738;2022-11-27T05:57:12;3.20;99.90
25250;DHT22;13201;51.148;13.738;2022-11-27T05:59:37;3.10;99.90
25250;DHT22;13201;51.148;13.738;2022-11-27T06:02:03;3.10;99.90
25250;DHT22;13201;51.148;13.738;2022-11-27T06:04:34;3.20;99.90
25250;DHT22;13201;51.148;13.738;2022-11-27T06:07:00;3.00;99.90
25250;DHT22;13201;51.148;13.738;2022-11-27T06:09:25;3.00;99.90
25250;DHT22;13201;51.148;13.738;2022-11-27T06:11:51;2.90;99.90
25250;DHT22;13201;51.148;13.738;2022-11-27T06:14:17;2.80;99.90
25250;DHT22;13201;51.148;13.738;2022-11-27T06:16:42;2.80;99.90
25250;DHT22;13201;51.148;13.738;2022-11-27T06:19:08;2.80;99.90
25250;DHT22;13201;51.148;13.738;2022-11-27T06:21:34;2.80;99.90
25250;DHT22;13201;51.148;13.738;2022-11-27T06:23:59;2.90;99.90
25250;DHT22;13201;51.148;13.738;2022-11-27T06:26:28;2.80;99.90
25250;DHT22;13201;51.148;13.738;2022-11-27T06:28:55;2.80;99.90
25250;DHT22;13201;51.148;13.738;2022-11-27T06:31:23;2.80;99.90
25250;DHT22;13201;51.148;13.738;2022-11-27T06:33:52;2.70;99.90
25250;DHT22;13201;51.148;13.738;2022-11-27T06:36:18;2.80;99.90
25250;DHT22;13201;51.148;13.738;2022-11-27T06:38:44;3.00;99.90
25250;DHT22;13201;51.148;13.738;2022-11-27T06:41:12;3.10;99.90
25250;DHT22;13201;51.148;13.738;2022-11-27T06:43:38;3.30;99.90
25250;DHT22;13201;51.148;13.738;2022-11-27T06:46:06;3.30;99.90
25250;DHT22;13201;51.148;13.738;2022-11-27T06:48:33;3.40;99.90
25250;DHT22;13201;51.148;13.738;2022-11-27T06:51:03;3.40;99.90
25250;DHT22;13201;51.148;13.738;2022-11-27T06:53:30;3.40;99.90
25250;DHT22;13201;51.148;13.738;2022-11-27T06:55:56;3.20;99.90
25250;DHT22;13201;51.148;13.738;2022-11-27T06:58:23;3.20;99.90
25250;DHT22;13201;51.148;13.738;2022-11-27T07:00:48;3.20;99.90
25250;DHT22;13201;51.148;13.738;2022-11-27T07:03:14;3.20;99.90
25250;DHT22;13201;51.148;13.738;2022-11-27T07:05:40;3.30;99.90
25250;DHT22;13201;51.148;13.738;2022-11-27T07:08:05;3.30;99.90
25250;DHT22;13201;51.148;13.738;2022-11-27T07:10:35;3.50;99.90
25250;DHT22;13201;51.148;13.738;2022-11-27T07:13:00;3.50;99.90
25250;DHT22;13201;51.148;13.738;2022-11-27T07:15:26;3.20;99.90
25250;DHT22;13201;51.148;13.738;2022-11-27T07:17:52;3.30;99.90
25250;DHT22;13201;51.148;13.738;2022-11-27T07:20:18;3.30;99.90
25250;DHT22;13201;51.148;13.738;2022-11-27T07:22:43;3.20;99.90
25250;DHT22;13201;51.148;13.738;2022-11-27T07:25:09;3.10;99.90
25250;DHT22;13201;51.148;13.738;2022-11-27T07:27:34;3.00;99.90
25250;DHT22;13201;51.148;13.738;2022-11-27T07:30:00;3.00;99.90
25250;DHT22;13201;51.148;13.738;2022-11-27T07:32:26;2.90;99.90
25250;DHT22;13201;51.148;13.738;2022-11-27T07:34:51;2.90;99.90
25250;DHT22;13201;51.148;13.738;2022-11-27T07:37:17;2.90;99.90
25250;DHT22;13201;51.148;13.738;2022-11-27T07:39:43;2.80;99.90
25250;DHT22;13201;51.148;13.738;2022-11-27T07:42:08;2.70;99.90
25250;DHT22;13201;51.148;13.738;2022-11-27T07:44:34;2.80;99.90
25250;DHT22;13201;51.148;13.738;2022-11-27T07:47:00;3.00;99.90
25250;DHT22;13201;51.148;13.738;2022-11-27T07:49:25;3.00;99.90
25250;DHT22;13201;51.148;13.738;2022-11-27T07:51:51;3.10;99.90
25250;DHT22;13201;51.148;13.738;2022-11-27T07:54:16;2.90;99.90
25250;DHT22;13201;51.148;13.738;2022-11-27T07:56:42;2.80;99.90
25250;DHT22;13201;51.148;13.738;2022-11-27T07:59:08;2.70;99.90
25250;DHT22;13201;51.148;13.738;2022-11-27T08:01:33;2.70;99.90
25250;DHT22;13201;51.148;13.738;2022-11-27T08:03:59;2.70;99.90
25250;DHT22;13201;51.148;13.738;2022-11-27T08:06:25;2.80;99.90
25250;DHT22;13201;51.148;13.738;2022-11-27T08:08:52;2.80;99.90
25250;DHT22;13201;51.148;13.738;2022-11-27T08:11:23;2.80;99.90
25250;DHT22;13201;51.148;13.738;2022-11-27T08:13:49;2.80;99.90
25250;DHT22;13201;51.148;13.738;2022-11-27T08:16:15;2.90;99.90
25250;DHT22;13201;51.148;13.738;2022-11-27T08:18:41;2.90;99.90
25250;DHT22;13201;51.148;13.738;2022-11-27T08:21:07;3.00;99.90
25250;DHT22;13201;51.148;13.738;2022-11-27T08:23:32;3.10;99.90
25250;DHT22;13201;51.148;13.738;2022-11-27T08:25:58;3.10;99.90
25250;DHT22;13201;51.148;13.738;2022-11-27T08:28:24;3.00;99.90
25250;DHT22;13201;51.148;13.738;2022-11-27T08:31:00;3.10;99.90
25250;DHT22;13201;51.148;13.738;2022-11-27T08:33:27;3.10;99.90
25250;DHT22;13201;51.148;13.738;2022-11-27T08:35:52;3.20;99.90
25250;DHT22;13201;51.148;13.738;2022-11-27T08:38:19;3.20;99.90
25250;DHT22;13201;51.148;13.738;2022-11-27T08:40:44;3.30;99.90
25250;DHT22;13201;51.148;13.738;2022-11-27T08:43:10;3.30;99.90
25250;DHT22;13201;51.148;13.738;2022-11-27T08:45:39;3.30;99.90
25250;DHT22;13201;51.148;13.738;2022-11-27T08:48:05;3.50;99.90
25250;DHT22;13201;51.148;13.738;2022-11-27T08:50:30;3.50;99.90
25250;DHT22;13201;51.148;13.738;2022-11-27T08:52:56;3.60;99.90
25250;DHT22;13201;51.148;13.738;2022-11-27T08:55:22;3.70;99.90
25250;DHT22;13201;51.148;13.738;2022-11-27T08:57:47;3.80;99.90
25250;DHT22;13201;51.148;13.738;2022-11-27T09:00:13;3.90;99.90
25250;DHT22;13201;51.148;13.738;2022-11-27T09:02:39;4.00;99.90
25250;DHT22;13201;51.148;13.738;2022-11-27T09:05:05;4.10;99.90
25250;DHT22;13201;51.148;13.738;2022-11-27T09:07:31;4.10;99.90
25250;DHT22;13201;51.148;13.738;2022-11-27T09:09:56;4.20;99.90
25250;DHT22;13201;51.148;13.738;2022-11-27T09:12:22;4.00;99.90
25250;DHT22;13201;51.148;13.738;2022-11-27T09:14:47;4.10;99.90
25250;DHT22;13201;51.148;13.738;2022-11-27T09:17:13;4.10;99.90
25250;DHT22;13201;51.148;13.738;2022-11-27T09:19:39;4.20;99.90
25250;DHT22;13201;51.148;13.738;2022-11-27T09:22:04;4.20;99.90
25250;DHT22;13201;51.148;13.738;2022-11-27T09:24:30;4.30;99.90
25250;DHT22;13201;51.148;13.738;2022-11-27T09:26:56;4.30;99.90
25250;DHT22;13201;51.148;13.738;2022-11-27T09:29:21;4.30;99.90
25250;DHT22;13201;51.148;13.738;2022-11-27T09:31:47;4.30;99.90
25250;DHT22;13201;51.148;13.738;2022-11-27T09:34:13;4.40;99.90
25250;DHT22;13201;51.148;13.738;2022-11-27T09:36:39;4.50;99.90
25250;DHT22;13201;51.148;13.738;2022-11-27T09:39:05;4.40;99.90
25250;DHT22;13201;51.148;13.738;2022-11-27T09:41:44;4.50;99.90
25250;DHT22;13201;51.148;13.738;2022-11-27T09:44:15;4.80;99.90
25250;DHT22;13201;51.148;13.738;2022-11-27T09:46:42;4.90;99.90
25250;DHT22;13201;51.148;13.738;2022-11-27T09:49:13;5.00;99.90
25250;DHT22;13201;51.148;13.738;2022-11-27T09:54:49;5.10;99.90
25250;DHT22;13201;51.148;13.738;2022-11-27T09:57:24;5.20;99.90
25250;DHT22;13201;51.148;13.738;2022-11-27T09:59:52;5.40;99.90
25250;DHT22;13201;51.148;13.738;2022-11-27T10:02:28;5.50;99.90
25250;DHT22;13201;51.148;13.738;2022-11-27T10:04:55;5.60;99.90
25250;DHT22;13201;51.148;13.738;2022-11-27T10:07:47;5.70;99.90
25250;DHT22;13201;51.148;13.738;2022-11-27T10:18:36;6.10;99.90
25250;DHT22;13201;51.148;13.738;2022-11-27T10:24:56;6.50;99.90
25250;DHT22;13201;51.148;13.738;2022-11-27T10:26:49;6.70;99.90
25250;DHT22;13201;51.148;13.738;2022-11-27T10:29:24;6.80;99.90
25250;DHT22;13201;51.148;13.738;2022-11-27T10:31:54;6.90;99.90
25250;DHT22;13201;51.148;13.738;2022-11-27T10:34:46;6.90;99.90
25250;DHT22;13201;51.148;13.738;2022-11-27T10:40:05;7.30;99.90
25250;DHT22;13201;51.148;13.738;2022-11-27T10:45:01;7.40;99.90
25250;DHT22;13201;51.148;13.738;2022-11-27T10:47:27;7.50;99.90
25250;DHT22;13201;51.148;13.738;2022-11-27T10:49:53;7.60;99.90
25250;DHT22;13201;51.148;13.738;2022-11-27T10:52:19;7.70;99.90
25250;DHT22;13201;51.148;13.738;2022-11-27T10:54:54;7.90;99.90
25250;DHT22;13201;51.148;13.738;2022-11-27T10:57:49;7.80;99.90
25250;DHT22;13201;51.148;13.738;2022-11-27T11:00:23;8.00;99.90
25250;DHT22;13201;51.148;13.738;2022-11-27T11:02:59;8.10;99.90
25250;DHT22;13201;51.148;13.738;2022-11-27T11:05:26;8.10;99.90
25250;DHT22;13201;51.148;13.738;2022-11-27T11:08:04;8.30;99.90
25250;DHT22;13201;51.148;13.738;2022-11-27T11:10:42;8.40;99.90
25250;DHT22;13201;51.148;13.738;2022-11-27T11:13:23;8.40;99.90
25250;DHT22;13201;51.148;13.738;2022-11-27T11:16:12;8.50;99.90
25250;DHT22;13201;51.148;13.738;2022-11-27T11:23:57;8.80;99.90
25250;DHT22;13201;51.148;13.738;2022-11-27T11:26:33;8.90;99.90
25250;DHT22;13201;51.148;13.738;2022-11-27T11:29:14;9.10;99.90
25250;DHT22;13201;51.148;13.738;2022-11-27T11:31:42;9.20;99.90
25250;DHT22;13201;51.148;13.738;2022-11-27T11:34:25;9.20;99.90
25250;DHT22;13201;51.148;13.738;2022-11-27T11:37:07;9.20;99.90
25250;DHT22;13201;51.148;13.738;2022-11-27T11:39:45;9.30;99.90
25250;DHT22;13201;51.148;13.738;2022-11-27T11:42:30;9.40;99.90
25250;DHT22;13201;51.148;13.738;2022-11-27T11:47:32;9.70;99.90
25250;DHT22;13201;51.148;13.738;2022-11-27T11:49:58;9.70;99.90
25250;DHT22;13201;51.148;13.738;2022-11-27T11:58:02;9.50;99.90
25250;DHT22;13201;51.148;13.738;2022-11-27T12:00:56;9.60;99.90
25250;DHT22;13201;51.148;13.738;2022-11-27T12:03:56;9.50;99.90
25250;DHT22;13201;51.148;13.738;2022-11-27T12:09:23;9.70;99.90
25250;DHT22;13201;51.148;13.738;2022-11-27T12:18:06;9.80;99.90
25250;DHT22;13201;51.148;13.738;2022-11-27T12:24:11;9.90;99.90
25250;DHT22;13201;51.148;13.738;2022-11-27T12:29:06;9.90;99.90
25250;DHT22;13201;51.148;13.738;2022-11-27T12:40:27;9.90;99.90
25250;DHT22;13201;51.148;13.738;2022-11-27T12:45:36;9.70;99.90
25250;DHT22;13201;51.148;13.738;2022-11-27T12:50:49;9.40;99.90
25250;DHT22;13201;51.148;13.738;2022-11-27T12:53:37;9.30;99.90
25250;DHT22;13201;51.148;13.738;2022-11-27T12:59:27;9.20;99.90
25250;DHT22;13201;51.148;13.738;2022-11-27T13:04:49;9.10;99.90
25250;DHT22;13201;51.148;13.738;2022-11-27T13:07:22;8.90;99.90
25250;DHT22;13201;51.148;13.738;2022-11-27T13:18:44;8.80;99.90
25250;DHT22;13201;51.148;13.738;2022-11-27T13:21:19;8.70;99.90
25250;DHT22;13201;51.148;13.738;2022-11-27T13:23:47;8.70;99.90
25250;DHT22;13201;51.148;13.738;2022-11-27T13:26:23;8.60;99.90
25250;DHT22;13201;51.148;13.738;2022-11-27T13:28:56;8.60;99.90
25250;DHT22;13201;51.148;13.738;2022-11-27T13:31:28;8.50;99.90
25250;DHT22;13201;51.148;13.738;2022-11-27T13:34:14;8.60;99.90
25250;DHT22;13201;51.148;13.738;2022-11-27T13:36:43;8.60;99.90
25250;DHT22;13201;51.148;13.738;2022-11-27T13:39:23;8.50;99.90
25250;DHT22;13201;51.148;13.738;2022-11-27T13:42:11;8.40;99.90
25250;DHT22;13201;51.148;13.738;2022-11-27T13:44:43;8.40;99.90
25250;DHT22;13201;51.148;13.738;2022-11-27T13:47:17;8.40;99.90
25250;DHT22;13201;51.148;13.738;2022-11-27T13:49:44;8.50;99.90
25250;DHT22;13201;51.148;13.738;2022-11-27T13:52:18;8.50;99.90
25250;DHT22;13201;51.148;13.738;2022-11-27T13:54:54;8.40;99.90
25250;DHT22;13201;51.148;13.738;2022-11-27T13:57:20;8.40;99.90
25250;DHT22;13201;51.148;13.738;2022-11-27T13:59:59;8.40;99.90
25250;DHT22;13201;51.148;13.738;2022-11-27T14:02:38;8.30;99.90
25250;DHT22;13201;51.148;13.738;2022-11-27T14:05:04;8.20;99.90
25250;DHT22;13201;51.148;13.738;2022-11-27T14:07:51;8.20;99.90
25250;DHT22;13201;51.148;13.738;2022-11-27T14:10:20;8.20;99.90
25250;DHT22;13201;51.148;13.738;2022-11-27T14:12:56;8.10;99.90
25250;DHT22;13201;51.148;13.738;2022-11-27T14:15:25;8.10;99.90
25250;DHT22;13201;51.148;13.738;2022-11-27T14:18:20;8.10;99.90
25250;DHT22;13201;51.148;13.738;2022-11-27T14:20:50;8.10;99.90
25250;DHT22;13201;51.148;13.738;2022-11-27T14:23:51;8.10;99.90
25250;DHT22;13201;51.148;13.738;2022-11-27T14:26:22;8.00;99.90
25250;DHT22;13201;51.148;13.738;2022-11-27T14:28:51;8.00;99.90
25250;DHT22;13201;51.148;13.738;2022-11-27T14:31:30;8.00;99.90
25250;DHT22;13201;51.148;13.738;2022-11-27T14:33:57;7.90;99.90
25250;DHT22;13201;51.148;13.738;2022-11-27T14:36:30;7.80;99.90
25250;DHT22;13201;51.148;13.738;2022-11-27T14:38:57;7.80;99.90
25250;DHT22;13201;51.148;13.738;2022-11-27T14:41:24;7.70;99.90
25250;DHT22;13201;51.148;13.738;2022-11-27T14:44:04;7.60;99.90
25250;DHT22;13201;51.148;13.738;2022-11-27T14:46:32;7.50;99.90
25250;DHT22;13201;51.148;13.738;2022-11-27T14:48:59;7.50;99.90
25250;DHT22;13201;51.148;13.738;2022-11-27T14:51:33;7.40;99.90
25250;DHT22;13201;51.148;13.738;2022-11-27T14:54:10;7.40;99.90
25250;DHT22;13201;51.148;13.738;2022-11-27T14:56:39;7.30;99.90
25250;DHT22;13201;51.148;13.738;2022-11-27T14:59:05;7.30;99.90
25250;DHT22;13201;51.148;13.738;2022-11-27T15:01:36;7.10;99.90
25250;DHT22;13201;51.148;13.738;2022-11-27T15:04:04;7.20;99.90
25250;DHT22;13201;51.148;13.738;2022-11-27T15:06:35;7.10;99.90
25250;DHT22;13201;51.148;13.738;2022-11-27T15:09:02;7.10;99.90
25250;DHT22;13201;51.148;13.738;2022-11-27T15:11:28;7.10;99.90
25250;DHT22;13201;51.148;13.738;2022-11-27T15:13:59;7.10;99.90
25250;DHT22;13201;51.148;13.738;2022-11-27T15:16:28;7.10;99.90
25250;DHT22;13201;51.148;13.738;2022-11-27T15:19:01;7.00;99.90
25250;DHT22;13201;51.148;13.738;2022-11-27T15:21:28;7.00;99.90
25250;DHT22;13201;51.148;13.738;2022-11-27T15:23:55;6.90;99.90
25250;DHT22;13201;51.148;13.738;2022-11-27T15:26:36;7.00;99.90
25250;DHT22;13201;51.148;13.738;2022-11-27T15:29:35;7.10;99.90
25250;DHT22;13201;51.148;13.738;2022-11-27T15:32:02;7.00;99.90
25250;DHT22;13201;51.148;13.738;2022-11-27T15:34:31;6.90;99.90
25250;DHT22;13201;51.148;13.738;2022-11-27T15:37:02;6.70;99.90
25250;DHT22;13201;51.148;13.738;2022-11-27T15:39:50;6.70;99.90
25250;DHT22;13201;51.148;13.738;2022-11-27T15:42:17;6.60;99.90
25250;DHT22;13201;51.148;13.738;2022-11-27T15:44:46;6.50;99.90
25250;DHT22;13201;51.148;13.738;2022-11-27T15:47:38;6.50;99.90
25250;DHT22;13201;51.148;13.738;2022-11-27T15:50:06;6.40;99.90
25250;DHT22;13201;51.148;13.738;2022-11-27T15:52:32;6.40;99.90
25250;DHT22;13201;51.148;13.738;2022-11-27T15:54:58;6.40;99.90
25250;DHT22;13201;51.148;13.738;2022-11-27T15:57:23;6.30;99.90
25250;DHT22;13201;51.148;13.738;2022-11-27T15:59:50;6.30;99.90
25250;DHT22;13201;51.148;13.738;2022-11-27T16:02:16;6.40;99.90
25250;DHT22;13201;51.148;13.738;2022-11-27T16:04:42;6.30;99.90
25250;DHT22;13201;51.148;13.738;2022-11-27T16:07:08;6.30;99.90
25250;DHT22;13201;51.148;13.738;2022-11-27T16:09:34;6.30;99.90
25250;DHT22;13201;51.148;13.738;2022-11-27T16:12:01;6.10;99.90
25250;DHT22;13201;51.148;13.738;2022-11-27T16:14:26;6.10;99.90
25250;DHT22;13201;51.148;13.738;2022-11-27T16:16:52;6.00;99.90
25250;DHT22;13201;51.148;13.738;2022-11-27T16:19:18;5.90;99.90
25250;DHT22;13201;51.148;13.738;2022-11-27T16:21:43;5.90;99.90
25250;DHT22;13201;51.148;13.738;2022-11-27T16:24:11;5.90;99.90
25250;DHT22;13201;51.148;13.738;2022-11-27T16:26:37;5.80;99.90
25250;DHT22;13201;51.148;13.738;2022-11-27T16:29:04;5.80;99.90
25250;DHT22;13201;51.148;13.738;2022-11-27T16:31:29;5.80;99.90
25250;DHT22;13201;51.148;13.738;2022-11-27T16:33:55;5.80;99.90
25250;DHT22;13201;51.148;13.738;2022-11-27T16:36:21;5.80;99.90
25250;DHT22;13201;51.148;13.738;2022-11-27T16:38:47;5.80;99.90
25250;DHT22;13201;51.148;13.738;2022-11-27T16:41:15;5.70;99.90
25250;DHT22;13201;51.148;13.738;2022-11-27T16:43:46;5.80;99.90
25250;DHT22;13201;51.148;13.738;2022-11-27T16:48:41;5.80;99.90
25250;DHT22;13201;51.148;13.738;2022-11-27T16:51:14;5.80;99.90
25250;DHT22;13201;51.148;13.738;2022-11-27T16:53:42;6.00;99.90
25250;DHT22;13201;51.148;13.738;2022-11-27T16:56:10;6.00;99.90
25250;DHT22;13201;51.148;13.738;2022-11-27T16:58:37;5.90;99.90
25250;DHT22;13201;51.148;13.738;2022-11-27T17:01:05;5.90;99.90
25250;DHT22;13201;51.148;13.738;2022-11-27T17:03:31;6.00;99.90
25250;DHT22;13201;51.148;13.738;2022-11-27T17:05:57;6.10;99.90
25250;DHT22;13201;51.148;13.738;2022-11-27T17:08:23;6.10;99.90
25250;DHT22;13201;51.148;13.738;2022-11-27T17:10:49;6.00;99.90
25250;DHT22;13201;51.148;13.738;2022-11-27T17:13:14;6.00;99.90
25250;DHT22;13201;51.148;13.738;2022-11-27T17:15:40;6.00;99.90
25250;DHT22;13201;51.148;13.738;2022-11-27T17:18:06;6.00;99.90
25250;DHT22;13201;51.148;13.738;2022-11-27T17:20:32;6.00;99.90
25250;DHT22;13201;51.148;13.738;2022-11-27T17:22:57;6.00;99.90
25250;DHT22;13201;51.148;13.738;2022-11-27T17:25:23;6.10;99.90
25250;DHT22;13201;51.148;13.738;2022-11-27T17:27:50;6.00;99.90
25250;DHT22;13201;51.148;13.738;2022-11-27T17:30:18;5.90;99.90
25250;DHT22;13201;51.148;13.738;2022-11-27T17:32:44;5.90;99.90
25250;DHT22;13201;51.148;13.738;2022-11-27T17:35:09;6.00;99.90
25250;DHT22;13201;51.148;13.738;2022-11-27T17:37:35;5.80;99.90
25250;DHT22;13201;51.148;13.738;2022-11-27T17:40:01;5.80;99.90
25250;DHT22;13201;51.148;13.738;2022-11-27T17:42:27;5.90;99.90
25250;DHT22;13201;51.148;13.738;2022-11-27T17:44:52;5.70;99.90
25250;DHT22;13201;51.148;13.738;2022-11-27T17:47:18;5.70;99.90
25250;DHT22;13201;51.148;13.738;2022-11-27T17:49:44;5.50;99.90
25250;DHT22;13201;51.148;13.738;2022-11-27T17:52:09;5.50;99.90
25250;DHT22;13201;51.148;13.738;2022-11-27T17:54:35;5.50;99.90
25250;DHT22;13201;51.148;13.738;2022-11-27T17:57:01;5.30;99.90
25250;DHT22;13201;51.148;13.738;2022-11-27T17:59:26;5.40;99.90